sensor_id;sensor_type;location;lat;lon;timestamp;P1;P2;P0
54553;PMS5003;40450;55.848;-3.572;2022-07-29T00:00:35;8;6;
54553;PMS5003;40450;55.848;-3.572;2022-07-29T00:03:05;8;5;
54553;PMS5003;40450;55.848;-3.572;2022-07-29T00:05:36;5;5;
54553;PMS5003;40450;55.848;-3.572;2022-07-29T00:08:06;5;5;
54553;PMS5003;40450;55.848;-3.572;2022-07-29T00:10:37;3;3;
54553;PMS5003;40450;55.848;-3.572;2022-07-29T00:13:07;6;6;
54553;PMS5003;40450;55.848;-3.572;2022-07-29T00:15:37;7;6;
54553;PMS5003;40450;55.848;-3.572;2022-07-29T00:18:08;5;5;
54553;PMS5003;40450;55.848;-3.572;2022-07-29T00:20:38;5;5;
54553;PMS5003;40450;55.848;-3.572;2022-07-29T00:23:08;6;4;
54553;PMS5003;40450;55.848;-3.572;2022-07-29T00:25:39;6;6;
54553;PMS5003;40450;55.848;-3.572;2022-07-29T00:28:09;6;6;
54553;PMS5003;40450;55.848;-3.572;2022-07-29T00:30:39;4;4;
54553;PMS5003;40450;55.848;-3.572;2022-07-29T00:33:10;6;5;
54553;PMS5003;40450;55.848;-3.572;2022-07-29T00:35:40;4;3;
54553;PMS5003;40450;55.848;-3.572;2022-07-29T00:38:11;7;5;
54553;PMS5003;40450;55.848;-3.572;2022-07-29T00:40:41;5;5;
54553;PMS5003;40450;55.848;-3.572;2022-07-29T00:43:12;8;8;
54553;PMS5003;40450;55.848;-3.572;2022-07-29T00:45:42;4;4;
54553;PMS5003;40450;55.848;-3.572;2022-07-29T00:48:12;6;6;
54553;PMS5003;40450;55.848;-3.572;2022-07-29T00:50:42;6;6;
54553;PMS5003;40450;55.848;-3.572;2022-07-29T00:53:13;4;4;
54553;PMS5003;40450;55.848;-3.572;2022-07-29T00:55:43;6;5;
54553;PMS5003;40450;55.848;-3.572;2022-07-29T00:58:13;6;6;
54553;PMS5003;40450;55.848;-3.572;2022-07-29T01:00:44;5;5;
54553;PMS5003;40450;55.848;-3.572;2022-07-29T01:03:14;8;7;
54553;PMS5003;40450;55.848;-3.572;2022-07-29T01:05:45;5;5;
54553;PMS5003;40450;55.848;-3.572;2022-07-29T01:08:15;6;6;
54553;PMS5003;40450;55.848;-3.572;2022-07-29T01:10:45;7;4;
54553;PMS5003;40450;55.848;-3.572;2022-07-29T01:13:16;4;4;
54553;PMS5003;40450;55.848;-3.572;2022-07-29T01:15:47;8;6;
54553;PMS5003;40450;55.848;-3.572;2022-07-29T01:18:18;6;6;
54553;PMS5003;40450;55.848;-3.572;2022-07-29T01:20:58;9;9;
54553;PMS5003;40450;55.848;-3.572;2022-07-29T01:23:23;4;4;
54553;PMS5003;40450;55.848;-3.572;2022-07-29T01:30:49;8;5;
54553;PMS5003;40450;55.848;-3.572;2022-07-29T01:33:19;8;8;
54553;PMS5003;40450;55.848;-3.572;2022-07-29T01:35:49;6;6;
54553;PMS5003;40450;55.848;-3.572;2022-07-29T01:38:20;5;5;
54553;PMS5003;40450;55.848;-3.572;2022-07-29T01:40:51;6;6;
54553;PMS5003;40450;55.848;-3.572;2022-07-29T01:43:27;4;4;
54553;PMS5003;40450;55.848;-3.572;2022-07-29T01:45:53;5;4;
54553;PMS5003;40450;55.848;-3.572;2022-07-29T01:48:22;6;6;
54553;PMS5003;40450;55.848;-3.572;2022-07-29T01:50:53;5;5;
54553;PMS5003;40450;55.848;-3.572;2022-07-29T01:53:24;6;6;
54553;PMS5003;40450;55.848;-3.572;2022-07-29T01:55:52;3;3;
54553;PMS5003;40450;55.848;-3.572;2022-07-29T01:58:22;5;5;
54553;PMS5003;40450;55.848;-3.572;2022-07-29T02:00:53;4;4;
54553;PMS5003;40450;55.848;-3.572;2022-07-29T02:03:23;3;3;
54553;PMS5003;40450;55.848;-3.572;2022-07-29T02:05:54;6;5;
54553;PMS5003;40450;55.848;-3.572;2022-07-29T02:08:24;7;7;
54553;PMS5003;40450;55.848;-3.572;2022-07-29T02:10:54;5;5;
54553;PMS5003;40450;55.848;-3.572;2022-07-29T02:13:25;7;7;
54553;PMS5003;40450;55.848;-3.572;2022-07-29T02:15:55;5;4;
54553;PMS5003;40450;55.848;-3.572;2022-07-29T02:18:26;7;6;
54553;PMS5003;40450;55.848;-3.572;2022-07-29T02:20:56;5;5;
54553;PMS5003;40450;55.848;-3.572;2022-07-29T02:23:26;7;6;
54553;PMS5003;40450;55.848;-3.572;2022-07-29T02:25:57;5;5;
54553;PMS5003;40450;55.848;-3.572;2022-07-29T02:28:28;4;4;
54553;PMS5003;40450;55.848;-3.572;2022-07-29T02:30:59;5;5;
54553;PMS5003;40450;55.848;-3.572;2022-07-29T02:33:28;8;6;
54553;PMS5003;40450;55.848;-3.572;2022-07-29T02:35:58;8;6;
54553;PMS5003;40450;55.848;-3.572;2022-07-29T02:38:29;6;6;
54553;PMS5003;40450;55.848;-3.572;2022-07-29T02:41:00;4;4;
54553;PMS5003;40450;55.848;-3.572;2022-07-29T02:43:30;4;4;
54553;PMS5003;40450;55.848;-3.572;2022-07-29T02:46:00;7;5;
54553;PMS5003;40450;55.848;-3.572;2022-07-29T02:48:32;8;5;
54553;PMS5003;40450;55.848;-3.572;2022-07-29T02:51:03;5;5;
54553;PMS5003;40450;55.848;-3.572;2022-07-29T02:53:31;4;4;
54553;PMS5003;40450;55.848;-3.572;2022-07-29T02:56:02;8;8;
54553;PMS5003;40450;55.848;-3.572;2022-07-29T02:58:32;7;6;
54553;PMS5003;40450;55.848;-3.572;2022-07-29T03:01:03;7;6;
54553;PMS5003;40450;55.848;-3.572;2022-07-29T03:03:33;9;6;
54553;PMS5003;40450;55.848;-3.572;2022-07-29T03:06:03;6;6;
54553;PMS5003;40450;55.848;-3.572;2022-07-29T03:08:33;8;8;
54553;PMS5003;40450;55.848;-3.572;2022-07-29T03:11:03;6;4;
54553;PMS5003;40450;55.848;-3.572;2022-07-29T03:13:34;6;6;
54553;PMS5003;40450;55.848;-3.572;2022-07-29T03:16:04;7;7;
54553;PMS5003;40450;55.848;-3.572;2022-07-29T03:18:34;9;9;
54553;PMS5003;40450;55.848;-3.572;2022-07-29T03:21:04;7;5;
54553;PMS5003;40450;55.848;-3.572;2022-07-29T03:23:35;6;6;
54553;PMS5003;40450;55.848;-3.572;2022-07-29T03:26:05;4;4;
54553;PMS5003;40450;55.848;-3.572;2022-07-29T03:28:35;6;6;
54553;PMS5003;40450;55.848;-3.572;2022-07-29T03:31:06;7;7;
54553;PMS5003;40450;55.848;-3.572;2022-07-29T03:33:36;6;6;
54553;PMS5003;40450;55.848;-3.572;2022-07-29T03:36:07;6;6;
54553;PMS5003;40450;55.848;-3.572;2022-07-29T03:38:37;6;6;
54553;PMS5003;40450;55.848;-3.572;2022-07-29T03:41:09;6;6;
54553;PMS5003;40450;55.848;-3.572;2022-07-29T03:43:38;8;6;
54553;PMS5003;40450;55.848;-3.572;2022-07-29T03:46:08;6;6;
54553;PMS5003;40450;55.848;-3.572;2022-07-29T03:48:39;7;7;
54553;PMS5003;40450;55.848;-3.572;2022-07-29T03:51:09;8;8;
54553;PMS5003;40450;55.848;-3.572;2022-07-29T03:53:39;8;6;
54553;PMS5003;40450;55.848;-3.572;2022-07-29T03:56:10;8;8;
54553;PMS5003;40450;55.848;-3.572;2022-07-29T03:58:41;7;7;
54553;PMS5003;40450;55.848;-3.572;2022-07-29T04:01:11;9;9;
54553;PMS5003;40450;55.848;-3.572;2022-07-29T04:03:41;8;6;
54553;PMS5003;40450;55.848;-3.572;2022-07-29T04:06:12;7;6;
54553;PMS5003;40450;55.848;-3.572;2022-07-29T04:08:42;6;6;
54553;PMS5003;40450;55.848;-3.572;2022-07-29T04:11:12;8;7;
54553;PMS5003;40450;55.848;-3.572;2022-07-29T04:13:43;6;6;
54553;PMS5003;40450;55.848;-3.572;2022-07-29T04:16:13;7;7;
54553;PMS5003;40450;55.848;-3.572;2022-07-29T04:18:43;10;7;
54553;PMS5003;40450;55.848;-3.572;2022-07-29T04:21:14;6;6;
54553;PMS5003;40450;55.848;-3.572;2022-07-29T04:23:44;7;7;
54553;PMS5003;40450;55.848;-3.572;2022-07-29T04:26:14;7;7;
54553;PMS5003;40450;55.848;-3.572;2022-07-29T04:28:45;5;5;
54553;PMS5003;40450;55.848;-3.572;2022-07-29T04:31:15;7;6;
54553;PMS5003;40450;55.848;-3.572;2022-07-29T04:33:45;6;5;
54553;PMS5003;40450;55.848;-3.572;2022-07-29T04:36:16;8;6;
54553;PMS5003;40450;55.848;-3.572;2022-07-29T04:38:46;7;7;
54553;PMS5003;40450;55.848;-3.572;2022-07-29T04:41:16;8;8;
54553;PMS5003;40450;55.848;-3.572;2022-07-29T04:43:47;6;5;
54553;PMS5003;40450;55.848;-3.572;2022-07-29T04:46:17;6;5;
54553;PMS5003;40450;55.848;-3.572;2022-07-29T04:48:48;8;7;
54553;PMS5003;40450;55.848;-3.572;2022-07-29T04:51:17;7;7;
54553;PMS5003;40450;55.848;-3.572;2022-07-29T04:53:48;7;6;
54553;PMS5003;40450;55.848;-3.572;2022-07-29T04:56:19;8;7;
54553;PMS5003;40450;55.848;-3.572;2022-07-29T04:58:49;5;5;
54553;PMS5003;40450;55.848;-3.572;2022-07-29T05:01:19;6;6;
54553;PMS5003;40450;55.848;-3.572;2022-07-29T05:03:50;11;8;
54553;PMS5003;40450;55.848;-3.572;2022-07-29T05:06:20;5;5;
54553;PMS5003;40450;55.848;-3.572;2022-07-29T05:08:51;4;3;
54553;PMS5003;40450;55.848;-3.572;2022-07-29T05:11:21;5;5;
54553;PMS5003;40450;55.848;-3.572;2022-07-29T05:13:52;5;5;
54553;PMS5003;40450;55.848;-3.572;2022-07-29T05:16:22;6;6;
54553;PMS5003;40450;55.848;-3.572;2022-07-29T05:18:52;5;5;
54553;PMS5003;40450;55.848;-3.572;2022-07-29T05:21:23;4;4;
54553;PMS5003;40450;55.848;-3.572;2022-07-29T05:23:53;7;7;
54553;PMS5003;40450;55.848;-3.572;2022-07-29T05:26:23;5;5;
54553;PMS5003;40450;55.848;-3.572;2022-07-29T05:28:54;5;5;
54553;PMS5003;40450;55.848;-3.572;2022-07-29T05:31:24;6;6;
54553;PMS5003;40450;55.848;-3.572;2022-07-29T05:33:54;8;7;
54553;PMS5003;40450;55.848;-3.572;2022-07-29T05:36:25;7;7;
54553;PMS5003;40450;55.848;-3.572;2022-07-29T05:38:55;7;7;
54553;PMS5003;40450;55.848;-3.572;2022-07-29T05:41:26;7;6;
54553;PMS5003;40450;55.848;-3.572;2022-07-29T05:43:56;5;5;
54553;PMS5003;40450;55.848;-3.572;2022-07-29T05:46:26;5;5;
54553;PMS5003;40450;55.848;-3.572;2022-07-29T05:48:57;5;5;
54553;PMS5003;40450;55.848;-3.572;2022-07-29T05:51:27;6;6;
54553;PMS5003;40450;55.848;-3.572;2022-07-29T05:53:57;8;7;
54553;PMS5003;40450;55.848;-3.572;2022-07-29T05:56:28;5;5;
54553;PMS5003;40450;55.848;-3.572;2022-07-29T05:58:58;5;5;
54553;PMS5003;40450;55.848;-3.572;2022-07-29T06:01:28;7;7;
54553;PMS5003;40450;55.848;-3.572;2022-07-29T06:03:59;6;6;
54553;PMS5003;40450;55.848;-3.572;2022-07-29T06:06:29;7;7;
54553;PMS5003;40450;55.848;-3.572;2022-07-29T06:08:59;7;7;
54553;PMS5003;40450;55.848;-3.572;2022-07-29T06:11:30;9;9;
54553;PMS5003;40450;55.848;-3.572;2022-07-29T06:14:00;8;8;
54553;PMS5003;40450;55.848;-3.572;2022-07-29T06:16:30;9;7;
54553;PMS5003;40450;55.848;-3.572;2022-07-29T06:19:01;5;5;
54553;PMS5003;40450;55.848;-3.572;2022-07-29T06:21:31;6;6;
54553;PMS5003;40450;55.848;-3.572;2022-07-29T06:24:02;10;8;
54553;PMS5003;40450;55.848;-3.572;2022-07-29T06:26:32;6;6;
54553;PMS5003;40450;55.848;-3.572;2022-07-29T06:29:02;6;6;
54553;PMS5003;40450;55.848;-3.572;2022-07-29T06:31:33;7;7;
54553;PMS5003;40450;55.848;-3.572;2022-07-29T06:34:03;8;8;
54553;PMS5003;40450;55.848;-3.572;2022-07-29T06:36:34;6;6;
54553;PMS5003;40450;55.848;-3.572;2022-07-29T06:39:04;7;7;
54553;PMS5003;40450;55.848;-3.572;2022-07-29T06:41:34;9;9;
54553;PMS5003;40450;55.848;-3.572;2022-07-29T06:44:04;5;5;
54553;PMS5003;40450;55.848;-3.572;2022-07-29T06:46:35;7;6;
54553;PMS5003;40450;55.848;-3.572;2022-07-29T06:49:05;5;5;
54553;PMS5003;40450;55.848;-3.572;2022-07-29T06:51:36;9;8;
54553;PMS5003;40450;55.848;-3.572;2022-07-29T06:54:06;9;7;
54553;PMS5003;40450;55.848;-3.572;2022-07-29T06:56:42;10;9;
54553;PMS5003;40450;55.848;-3.572;2022-07-29T06:59:09;5;5;
54553;PMS5003;40450;55.848;-3.572;2022-07-29T07:01:43;6;5;
54553;PMS5003;40450;55.848;-3.572;2022-07-29T07:04:08;6;5;
54553;PMS5003;40450;55.848;-3.572;2022-07-29T07:06:38;5;5;
54553;PMS5003;40450;55.848;-3.572;2022-07-29T07:09:08;5;5;
54553;PMS5003;40450;55.848;-3.572;2022-07-29T07:11:38;5;5;
54553;PMS5003;40450;55.848;-3.572;2022-07-29T07:14:08;8;8;
54553;PMS5003;40450;55.848;-3.572;2022-07-29T07:16:39;11;10;
54553;PMS5003;40450;55.848;-3.572;2022-07-29T07:19:09;7;7;
54553;PMS5003;40450;55.848;-3.572;2022-07-29T07:21:39;7;7;
54553;PMS5003;40450;55.848;-3.572;2022-07-29T07:24:10;7;7;
54553;PMS5003;40450;55.848;-3.572;2022-07-29T07:26:41;7;7;
54553;PMS5003;40450;55.848;-3.572;2022-07-29T07:29:10;9;9;
54553;PMS5003;40450;55.848;-3.572;2022-07-29T07:31:41;8;8;
54553;PMS5003;40450;55.848;-3.572;2022-07-29T07:34:12;12;10;
54553;PMS5003;40450;55.848;-3.572;2022-07-29T07:36:43;7;7;
54553;PMS5003;40450;55.848;-3.572;2022-07-29T07:39:12;8;8;
54553;PMS5003;40450;55.848;-3.572;2022-07-29T07:44:19;14;11;
54553;PMS5003;40450;55.848;-3.572;2022-07-29T07:46:45;11;11;
54553;PMS5003;40450;55.848;-3.572;2022-07-29T07:49:13;10;9;
54553;PMS5003;40450;55.848;-3.572;2022-07-29T07:51:43;12;11;
54553;PMS5003;40450;55.848;-3.572;2022-07-29T07:54:14;11;10;
54553;PMS5003;40450;55.848;-3.572;2022-07-29T07:56:44;11;11;
54553;PMS5003;40450;55.848;-3.572;2022-07-29T07:59:14;12;11;
54553;PMS5003;40450;55.848;-3.572;2022-07-29T08:01:45;15;11;
54553;PMS5003;40450;55.848;-3.572;2022-07-29T08:04:15;14;13;
54553;PMS5003;40450;55.848;-3.572;2022-07-29T08:06:45;15;14;
54553;PMS5003;40450;55.848;-3.572;2022-07-29T08:09:16;16;11;
54553;PMS5003;40450;55.848;-3.572;2022-07-29T08:11:46;11;11;
54553;PMS5003;40450;55.848;-3.572;2022-07-29T08:14:17;16;16;
54553;PMS5003;40450;55.848;-3.572;2022-07-29T08:16:47;11;11;
54553;PMS5003;40450;55.848;-3.572;2022-07-29T08:19:17;13;13;
54553;PMS5003;40450;55.848;-3.572;2022-07-29T08:21:47;18;13;
54553;PMS5003;40450;55.848;-3.572;2022-07-29T08:24:18;13;13;
54553;PMS5003;40450;55.848;-3.572;2022-07-29T08:26:48;10;10;
54553;PMS5003;40450;55.848;-3.572;2022-07-29T08:29:18;13;10;
54553;PMS5003;40450;55.848;-3.572;2022-07-29T08:31:54;12;11;
54553;PMS5003;40450;55.848;-3.572;2022-07-29T08:34:24;12;10;
54553;PMS5003;40450;55.848;-3.572;2022-07-29T08:36:50;15;12;
54553;PMS5003;40450;55.848;-3.572;2022-07-29T08:39:20;13;13;
54553;PMS5003;40450;55.848;-3.572;2022-07-29T08:41:50;14;14;
54553;PMS5003;40450;55.848;-3.572;2022-07-29T08:44:21;16;16;
54553;PMS5003;40450;55.848;-3.572;2022-07-29T08:46:51;13;13;
54553;PMS5003;40450;55.848;-3.572;2022-07-29T08:49:21;13;13;
54553;PMS5003;40450;55.848;-3.572;2022-07-29T08:51:51;15;12;
54553;PMS5003;40450;55.848;-3.572;2022-07-29T08:54:21;11;8;
54553;PMS5003;40450;55.848;-3.572;2022-07-29T08:56:52;12;10;
54553;PMS5003;40450;55.848;-3.572;2022-07-29T08:59:22;14;10;
54553;PMS5003;40450;55.848;-3.572;2022-07-29T09:01:53;10;10;
54553;PMS5003;40450;55.848;-3.572;2022-07-29T09:04:23;12;8;
54553;PMS5003;40450;55.848;-3.572;2022-07-29T09:06:53;10;10;
54553;PMS5003;40450;55.848;-3.572;2022-07-29T09:09:24;10;10;
54553;PMS5003;40450;55.848;-3.572;2022-07-29T09:11:54;12;10;
54553;PMS5003;40450;55.848;-3.572;2022-07-29T09:14:24;11;10;
54553;PMS5003;40450;55.848;-3.572;2022-07-29T09:16:55;10;9;
54553;PMS5003;40450;55.848;-3.572;2022-07-29T09:19:26;10;8;
54553;PMS5003;40450;55.848;-3.572;2022-07-29T09:21:56;14;11;
54553;PMS5003;40450;55.848;-3.572;2022-07-29T09:24:27;10;10;
54553;PMS5003;40450;55.848;-3.572;2022-07-29T09:26:56;18;18;
54553;PMS5003;40450;55.848;-3.572;2022-07-29T09:29:26;14;13;
54553;PMS5003;40450;55.848;-3.572;2022-07-29T09:31:57;10;10;
54553;PMS5003;40450;55.848;-3.572;2022-07-29T09:34:28;14;14;
54553;PMS5003;40450;55.848;-3.572;2022-07-29T09:36:58;13;13;
54553;PMS5003;40450;55.848;-3.572;2022-07-29T09:39:29;10;10;
54553;PMS5003;40450;55.848;-3.572;2022-07-29T09:42:00;10;9;
54553;PMS5003;40450;55.848;-3.572;2022-07-29T09:47:00;7;7;
54553;PMS5003;40450;55.848;-3.572;2022-07-29T09:49:29;10;8;
54553;PMS5003;40450;55.848;-3.572;2022-07-29T09:52:03;10;9;
54553;PMS5003;40450;55.848;-3.572;2022-07-29T09:54:35;10;10;
54553;PMS5003;40450;55.848;-3.572;2022-07-29T09:57:00;9;9;
54553;PMS5003;40450;55.848;-3.572;2022-07-29T09:59:30;9;8;
54553;PMS5003;40450;55.848;-3.572;2022-07-29T10:02:01;11;11;
54553;PMS5003;40450;55.848;-3.572;2022-07-29T10:07:02;14;11;
54553;PMS5003;40450;55.848;-3.572;2022-07-29T10:09:32;8;8;
54553;PMS5003;40450;55.848;-3.572;2022-07-29T10:12:03;7;7;
54553;PMS5003;40450;55.848;-3.572;2022-07-29T10:14:33;11;8;
54553;PMS5003;40450;55.848;-3.572;2022-07-29T10:17:03;8;8;
54553;PMS5003;40450;55.848;-3.572;2022-07-29T10:19:34;6;6;
54553;PMS5003;40450;55.848;-3.572;2022-07-29T10:22:06;8;8;
54553;PMS5003;40450;55.848;-3.572;2022-07-29T10:24:34;3;3;
54553;PMS5003;40450;55.848;-3.572;2022-07-29T10:27:09;4;4;
54553;PMS5003;40450;55.848;-3.572;2022-07-29T10:29:35;6;6;
54553;PMS5003;40450;55.848;-3.572;2022-07-29T10:32:09;8;5;
54553;PMS5003;40450;55.848;-3.572;2022-07-29T10:34:41;5;5;
54553;PMS5003;40450;55.848;-3.572;2022-07-29T10:37:07;6;6;
54553;PMS5003;40450;55.848;-3.572;2022-07-29T10:39:39;5;5;
54553;PMS5003;40450;55.848;-3.572;2022-07-29T10:42:10;8;6;
54553;PMS5003;40450;55.848;-3.572;2022-07-29T10:44:40;6;6;
54553;PMS5003;40450;55.848;-3.572;2022-07-29T10:47:08;4;4;
54553;PMS5003;40450;55.848;-3.572;2022-07-29T10:49:38;4;4;
54553;PMS5003;40450;55.848;-3.572;2022-07-29T10:52:14;8;6;
54553;PMS5003;40450;55.848;-3.572;2022-07-29T10:54:41;6;6;
54553;PMS5003;40450;55.848;-3.572;2022-07-29T10:59:39;6;3;
54553;PMS5003;40450;55.848;-3.572;2022-07-29T11:07:10;6;6;
54553;PMS5003;40450;55.848;-3.572;2022-07-29T11:09:40;5;4;
54553;PMS5003;40450;55.848;-3.572;2022-07-29T11:24:44;5;5;
54553;PMS5003;40450;55.848;-3.572;2022-07-29T11:27:15;4;4;
54553;PMS5003;40450;55.848;-3.572;2022-07-29T11:32:14;5;5;
54553;PMS5003;40450;55.848;-3.572;2022-07-29T11:37:18;5;4;
54553;PMS5003;40450;55.848;-3.572;2022-07-29T11:39:45;7;6;
54553;PMS5003;40450;55.848;-3.572;2022-07-29T11:47:19;9;6;
54553;PMS5003;40450;55.848;-3.572;2022-07-29T11:49:46;9;7;
54553;PMS5003;40450;55.848;-3.572;2022-07-29T11:52:17;4;4;
54553;PMS5003;40450;55.848;-3.572;2022-07-29T11:54:48;5;5;
54553;PMS5003;40450;55.848;-3.572;2022-07-29T11:57:17;5;5;
54553;PMS5003;40450;55.848;-3.572;2022-07-29T11:59:47;6;4;
54553;PMS5003;40450;55.848;-3.572;2022-07-29T12:02:18;4;4;
54553;PMS5003;40450;55.848;-3.572;2022-07-29T12:04:49;4;4;
54553;PMS5003;40450;55.848;-3.572;2022-07-29T12:07:18;6;5;
54553;PMS5003;40450;55.848;-3.572;2022-07-29T12:09:49;5;5;
54553;PMS5003;40450;55.848;-3.572;2022-07-29T12:12:19;6;4;
54553;PMS5003;40450;55.848;-3.572;2022-07-29T12:14:50;5;5;
54553;PMS5003;40450;55.848;-3.572;2022-07-29T12:19:50;4;4;
54553;PMS5003;40450;55.848;-3.572;2022-07-29T12:24:50;6;5;
54553;PMS5003;40450;55.848;-3.572;2022-07-29T12:27:21;3;3;
54553;PMS5003;40450;55.848;-3.572;2022-07-29T12:29:55;5;5;
54553;PMS5003;40450;55.848;-3.572;2022-07-29T12:32:22;6;4;
54553;PMS5003;40450;55.848;-3.572;2022-07-29T12:34:53;4;4;
54553;PMS5003;40450;55.848;-3.572;2022-07-29T12:37:23;4;4;
54553;PMS5003;40450;55.848;-3.572;2022-07-29T12:39:53;2;2;
54553;PMS5003;40450;55.848;-3.572;2022-07-29T12:42:23;4;4;
54553;PMS5003;40450;55.848;-3.572;2022-07-29T12:44:54;5;2;
54553;PMS5003;40450;55.848;-3.572;2022-07-29T12:47:24;6;6;
54553;PMS5003;40450;55.848;-3.572;2022-07-29T12:52:26;3;3;
54553;PMS5003;40450;55.848;-3.572;2022-07-29T12:54:56;5;5;
54553;PMS5003;40450;55.848;-3.572;2022-07-29T12:57:26;6;6;
54553;PMS5003;40450;55.848;-3.572;2022-07-29T13:00:00;3;3;
54553;PMS5003;40450;55.848;-3.572;2022-07-29T13:02:27;3;3;
54553;PMS5003;40450;55.848;-3.572;2022-07-29T13:04:58;4;4;
54553;PMS5003;40450;55.848;-3.572;2022-07-29T13:07:28;3;3;
54553;PMS5003;40450;55.848;-3.572;2022-07-29T13:12:28;3;3;
54553;PMS5003;40450;55.848;-3.572;2022-07-29T13:15:11;5;5;
54553;PMS5003;40450;55.848;-3.572;2022-07-29T13:17:29;5;5;
54553;PMS5003;40450;55.848;-3.572;2022-07-29T13:20:04;4;4;
54553;PMS5003;40450;55.848;-3.572;2022-07-29T13:22:30;7;5;
54553;PMS5003;40450;55.848;-3.572;2022-07-29T13:25:06;1;1;
54553;PMS5003;40450;55.848;-3.572;2022-07-29T13:27:31;3;3;
54553;PMS5003;40450;55.848;-3.572;2022-07-29T13:30:02;5;1;
54553;PMS5003;40450;55.848;-3.572;2022-07-29T13:32:32;5;3;
54553;PMS5003;40450;55.848;-3.572;2022-07-29T13:35:02;2;2;
54553;PMS5003;40450;55.848;-3.572;2022-07-29T13:37:32;4;4;
54553;PMS5003;40450;55.848;-3.572;2022-07-29T13:40:02;7;7;
54553;PMS5003;40450;55.848;-3.572;2022-07-29T13:42:33;6;6;
54553;PMS5003;40450;55.848;-3.572;2022-07-29T13:45:04;4;4;
54553;PMS5003;40450;55.848;-3.572;2022-07-29T13:47:33;7;7;
54553;PMS5003;40450;55.848;-3.572;2022-07-29T13:50:05;7;7;
54553;PMS5003;40450;55.848;-3.572;2022-07-29T13:52:34;4;4;
54553;PMS5003;40450;55.848;-3.572;2022-07-29T13:55:05;6;5;
54553;PMS5003;40450;55.848;-3.572;2022-07-29T13:57:35;5;5;
54553;PMS5003;40450;55.848;-3.572;2022-07-29T14:00:07;3;3;
54553;PMS5003;40450;55.848;-3.572;2022-07-29T14:02:35;11;7;
54553;PMS5003;40450;55.848;-3.572;2022-07-29T14:05:07;8;7;
54553;PMS5003;40450;55.848;-3.572;2022-07-29T14:07:37;8;8;
54553;PMS5003;40450;55.848;-3.572;2022-07-29T14:10:09;7;7;
54553;PMS5003;40450;55.848;-3.572;2022-07-29T14:12:38;5;4;
54553;PMS5003;40450;55.848;-3.572;2022-07-29T14:15:08;6;6;
54553;PMS5003;40450;55.848;-3.572;2022-07-29T14:17:39;4;4;
54553;PMS5003;40450;55.848;-3.572;2022-07-29T14:20:08;4;4;
54553;PMS5003;40450;55.848;-3.572;2022-07-29T14:22:40;7;6;
54553;PMS5003;40450;55.848;-3.572;2022-07-29T14:25:09;5;5;
54553;PMS5003;40450;55.848;-3.572;2022-07-29T14:27:39;8;8;
54553;PMS5003;40450;55.848;-3.572;2022-07-29T14:30:11;6;5;
54553;PMS5003;40450;55.848;-3.572;2022-07-29T14:32:40;7;7;
54553;PMS5003;40450;55.848;-3.572;2022-07-29T14:40:12;4;2;
54553;PMS5003;40450;55.848;-3.572;2022-07-29T14:42:43;4;4;
54553;PMS5003;40450;55.848;-3.572;2022-07-29T14:45:12;3;3;
54553;PMS5003;40450;55.848;-3.572;2022-07-29T14:47:42;4;4;
54553;PMS5003;40450;55.848;-3.572;2022-07-29T14:50:13;5;5;
54553;PMS5003;40450;55.848;-3.572;2022-07-29T14:52:44;6;5;
54553;PMS5003;40450;55.848;-3.572;2022-07-29T14:55:14;4;4;
54553;PMS5003;40450;55.848;-3.572;2022-07-29T14:57:46;3;3;
54553;PMS5003;40450;55.848;-3.572;2022-07-29T15:00:16;4;4;
54553;PMS5003;40450;55.848;-3.572;2022-07-29T15:02:46;4;4;
54553;PMS5003;40450;55.848;-3.572;2022-07-29T15:05:16;4;4;
54553;PMS5003;40450;55.848;-3.572;2022-07-29T15:07:51;6;6;
54553;PMS5003;40450;55.848;-3.572;2022-07-29T15:10:16;3;3;
54553;PMS5003;40450;55.848;-3.572;2022-07-29T15:12:47;4;4;
54553;PMS5003;40450;55.848;-3.572;2022-07-29T15:15:17;3;3;
54553;PMS5003;40450;55.848;-3.572;2022-07-29T15:17:47;4;4;
54553;PMS5003;40450;55.848;-3.572;2022-07-29T15:20:18;5;5;
54553;PMS5003;40450;55.848;-3.572;2022-07-29T15:22:48;4;4;
54553;PMS5003;40450;55.848;-3.572;2022-07-29T15:25:18;3;3;
54553;PMS5003;40450;55.848;-3.572;2022-07-29T15:27:48;7;7;
54553;PMS5003;40450;55.848;-3.572;2022-07-29T15:30:19;11;11;
54553;PMS5003;40450;55.848;-3.572;2022-07-29T15:32:49;8;8;
54553;PMS5003;40450;55.848;-3.572;2022-07-29T15:35:19;4;4;
54553;PMS5003;40450;55.848;-3.572;2022-07-29T15:37:50;5;5;
54553;PMS5003;40450;55.848;-3.572;2022-07-29T15:40:21;4;4;
54553;PMS5003;40450;55.848;-3.572;2022-07-29T15:42:51;3;3;
54553;PMS5003;40450;55.848;-3.572;2022-07-29T15:45:22;5;5;
54553;PMS5003;40450;55.848;-3.572;2022-07-29T15:47:53;4;4;
54553;PMS5003;40450;55.848;-3.572;2022-07-29T15:50:22;5;5;
54553;PMS5003;40450;55.848;-3.572;2022-07-29T15:52:52;4;4;
54553;PMS5003;40450;55.848;-3.572;2022-07-29T15:55:23;5;5;
54553;PMS5003;40450;55.848;-3.572;2022-07-29T15:57:53;4;4;
54553;PMS5003;40450;55.848;-3.572;2022-07-29T16:00:23;6;6;
54553;PMS5003;40450;55.848;-3.572;2022-07-29T16:02:53;5;5;
54553;PMS5003;40450;55.848;-3.572;2022-07-29T16:05:24;4;4;
54553;PMS5003;40450;55.848;-3.572;2022-07-29T16:07:55;5;5;
54553;PMS5003;40450;55.848;-3.572;2022-07-29T16:10:25;5;4;
54553;PMS5003;40450;55.848;-3.572;2022-07-29T16:12:55;5;4;
54553;PMS5003;40450;55.848;-3.572;2022-07-29T16:15:26;8;6;
54553;PMS5003;40450;55.848;-3.572;2022-07-29T16:17:56;9;8;
54553;PMS5003;40450;55.848;-3.572;2022-07-29T16:20:27;10;7;
54553;PMS5003;40450;55.848;-3.572;2022-07-29T16:22:57;5;5;
54553;PMS5003;40450;55.848;-3.572;2022-07-29T16:25:28;5;5;
54553;PMS5003;40450;55.848;-3.572;2022-07-29T16:27:57;8;8;
54553;PMS5003;40450;55.848;-3.572;2022-07-29T16:30:28;5;5;
54553;PMS5003;40450;55.848;-3.572;2022-07-29T16:32:58;4;4;
54553;PMS5003;40450;55.848;-3.572;2022-07-29T16:35:28;4;4;
54553;PMS5003;40450;55.848;-3.572;2022-07-29T16:37:59;4;4;
54553;PMS5003;40450;55.848;-3.572;2022-07-29T16:40:30;4;4;
54553;PMS5003;40450;55.848;-3.572;2022-07-29T16:43:00;3;3;
54553;PMS5003;40450;55.848;-3.572;2022-07-29T16:45:30;3;3;
54553;PMS5003;40450;55.848;-3.572;2022-07-29T16:48:00;4;4;
54553;PMS5003;40450;55.848;-3.572;2022-07-29T16:50:32;5;5;
54553;PMS5003;40450;55.848;-3.572;2022-07-29T16:53:01;4;4;
54553;PMS5003;40450;55.848;-3.572;2022-07-29T16:55:32;4;4;
54553;PMS5003;40450;55.848;-3.572;2022-07-29T17:00:33;3;3;
54553;PMS5003;40450;55.848;-3.572;2022-07-29T17:08:03;3;3;
54553;PMS5003;40450;55.848;-3.572;2022-07-29T17:10:38;4;4;
54553;PMS5003;40450;55.848;-3.572;2022-07-29T17:13:03;2;2;
54553;PMS5003;40450;55.848;-3.572;2022-07-29T17:15:33;3;3;
54553;PMS5003;40450;55.848;-3.572;2022-07-29T17:18:04;3;3;
54553;PMS5003;40450;55.848;-3.572;2022-07-29T17:23:04;2;2;
54553;PMS5003;40450;55.848;-3.572;2022-07-29T17:25:35;1;1;
54553;PMS5003;40450;55.848;-3.572;2022-07-29T17:28:05;4;4;
54553;PMS5003;40450;55.848;-3.572;2022-07-29T17:30:36;3;3;
54553;PMS5003;40450;55.848;-3.572;2022-07-29T17:35:38;4;4;
54553;PMS5003;40450;55.848;-3.572;2022-07-29T17:38:07;5;5;
54553;PMS5003;40450;55.848;-3.572;2022-07-29T17:40:37;3;3;
54553;PMS5003;40450;55.848;-3.572;2022-07-29T17:43:08;5;5;
54553;PMS5003;40450;55.848;-3.572;2022-07-29T17:45:38;5;4;
54553;PMS5003;40450;55.848;-3.572;2022-07-29T17:48:09;4;4;
54553;PMS5003;40450;55.848;-3.572;2022-07-29T17:50:39;4;2;
54553;PMS5003;40450;55.848;-3.572;2022-07-29T17:53:09;3;3;
54553;PMS5003;40450;55.848;-3.572;2022-07-29T17:55:39;4;3;
54553;PMS5003;40450;55.848;-3.572;2022-07-29T17:58:10;5;4;